マニラ/ニノイ・アキノ の空港の天気 - METARとTAF

ニノイ・アキノ国際空港 ( RPLL / MNL ) - フィリピン マニラ
飛行場実況気象(Metar)
観測時間05/23 08:00 PHT (05/23 00:00 UTC)
風向・風速不定 2m/s
視程10km以上
天気現象
少しの雲 雲底高度 760m
全天の4割程度の雲 雲底高度 9140m
気温32℃
湿度63%
気圧1011hPa
METARRPLL 230000Z VRB03KT 9999 FEW025 SCT300 32/24 Q1011 NOSIG RMK A2985
過去の天気等 Google飛行場航空写真 Wunderground天気予報

過去48時間のMETAR

飛行場予報(TAF)
発表時間: 5/23 07:00 PHT (5/22 23:00 UTC)
予報対象時間: 23日8時 PHT ~ 24日14時 PHT
風向・風速東南東 3m/s
視程10km以上
少しの雲 雲底高度 760m
全天の4割程度の雲 雲底高度 9,140m
23日8時 PHT ~ 23日14時 PHT に一時的に
風向・風速南東 5m/s
少しの雲 雲底高度 760m
全天の4割程度の雲 雲底高度 3,050m
23日14時 PHT ~ 23日20時 PHT に一時的に
風向・風速南南東 6m/s
少しの積乱雲 雲底高度 670m
少しの雲 雲底高度 700m
全天の8割程度の雲 雲底高度 3,050m
TAF RPLL 222300Z 2300/2406 12006KT 9999 FEW025 SCT300 TX36/2306Z TN28/2322Z
TEMPO 2300/2306 13010KT FEW025 SCT100
TEMPO 2306/2312 15012KT FEW022CB FEW023 BKN100